Terminal Aerodrome Forecast
Issued by NWS Bismarck, ND

Home | Current Version | Previous Version | Text Only | Print | Product List | Glossary Off
Versions: 1 2 3 4 5 6 7 8 9 10 11 12 13 14 15 16 17 18 19

822
FTUS43 KBIS 211122
TAFISN
TAF
KISN 211122Z 2112/2212 24009KT P6SM SCT100
     FM211400 28012KT P6SM FEW150
     FM211700 31017G25KT P6SM SKC
     FM220100 32010KT P6SM FEW250
     FM220300 02005KT P6SM SCT250=

USA.gov is the U.S. government's official web portal to all federal, state and local government web resources and services.